JST607 YSSY-YMAV
Flight info
| Callsign | JST607 |
|---|---|
| Flight time | 1h 11m |
| Altitude | 36000 |
| Route | WOL H65 LEECE Q29 ML W15 AV |
| Aircraft | A320/M-SDE3FGHIRWY/LB1 |
Departure
| Time | 2026-04-20 01:15 |
|---|---|
| Airport | Sydney Kingsford Smith International Airport (YSSY) |
Arrival
| Time | 2026-04-20 02:26 |
|---|---|
| Airport | Melbourne Avalon International Airport (YMAV) |
| Time | Latitude | Longitude | Altitude | Speed | Heading |
|---|---|---|---|---|---|
| 2026-04-20 00:03 | -33.93563 | 151.17760 | 30 ft | 0 kts | 281° |
| 2026-04-20 01:01 | -33.93568 | 151.17788 | 30 ft | 4 kts | 283° |
| 2026-04-20 01:02 | -33.93573 | 151.17819 | 30 ft | 4 kts | 256° |
| 2026-04-20 01:02 | -33.93569 | 151.17829 | 30 ft | 0 kts | 190° |
| 2026-04-20 01:02 | -33.93594 | 151.17824 | 30 ft | 4 kts | 190° |
| 2026-04-20 01:02 | -33.93611 | 151.17820 | 30 ft | 0 kts | 191° |
| 2026-04-20 01:11 | -33.93617 | 151.17819 | 30 ft | 4 kts | 191° |
| 2026-04-20 01:11 | -33.93677 | 151.17804 | 30 ft | 14 kts | 192° |
| 2026-04-20 01:12 | -33.93781 | 151.17773 | 30 ft | 16 kts | 194° |
| 2026-04-20 01:12 | -33.93862 | 151.17688 | 29 ft | 15 kts | 254° |
| 2026-04-20 01:12 | -33.93826 | 151.17587 | 29 ft | 16 kts | 343° |
| 2026-04-20 01:12 | -33.93714 | 151.17565 | 29 ft | 13 kts | 349° |
| 2026-04-20 01:13 | -33.93658 | 151.17550 | 29 ft | 7 kts | 346° |
| 2026-04-20 01:13 | -33.93584 | 151.17528 | 29 ft | 15 kts | 347° |
| 2026-04-20 01:13 | -33.93481 | 151.17478 | 29 ft | 16 kts | 296° |
| 2026-04-20 01:13 | -33.93497 | 151.17340 | 27 ft | 16 kts | 247° |
| 2026-04-20 01:14 | -33.93572 | 151.17323 | 27 ft | 11 kts | 167° |
| 2026-04-20 01:14 | -33.93768 | 151.17375 | 26 ft | 60 kts | 169° |
| 2026-04-20 01:14 | -33.94373 | 151.17529 | 30 ft | 115 kts | 168° |
| 2026-04-20 01:14 | -33.95298 | 151.17778 | 84 ft | 153 kts | 169° |
| 2026-04-20 01:15 | -33.96326 | 151.18007 | 713 ft | 151 kts | 177° |
| 2026-04-20 01:15 | -33.97396 | 151.18004 | 1394 ft | 156 kts | 184° |
| 2026-04-20 01:15 | -33.98485 | 151.17812 | 2036 ft | 160 kts | 188° |
| 2026-04-20 01:15 | -33.99624 | 151.17620 | 2504 ft | 172 kts | 185° |
| 2026-04-20 01:16 | -34.00896 | 151.17549 | 2805 ft | 197 kts | 180° |
| 2026-04-20 01:16 | -34.02345 | 151.17513 | 3135 ft | 223 kts | 179° |
| 2026-04-20 01:16 | -34.03941 | 151.17851 | 3711 ft | 240 kts | 167° |
| 2026-04-20 01:16 | -34.05578 | 151.18384 | 4598 ft | 245 kts | 165° |
| 2026-04-20 01:17 | -34.07232 | 151.18953 | 5543 ft | 249 kts | 166° |
| 2026-04-20 01:17 | -34.08910 | 151.19536 | 6438 ft | 253 kts | 166° |
| 2026-04-20 01:17 | -34.10617 | 151.20128 | 7277 ft | 257 kts | 166° |
| 2026-04-20 01:17 | -34.12357 | 151.20726 | 8085 ft | 262 kts | 166° |
| 2026-04-20 01:18 | -34.14097 | 151.21318 | 8912 ft | 265 kts | 166° |
| 2026-04-20 01:18 | -34.15883 | 151.21919 | 9747 ft | 269 kts | 166° |
| 2026-04-20 01:18 | -34.17721 | 151.22339 | 10507 ft | 271 kts | 179° |
| 2026-04-20 01:18 | -34.19627 | 151.22111 | 10973 ft | 285 kts | 195° |
| 2026-04-20 01:19 | -34.21462 | 151.21085 | 11465 ft | 298 kts | 214° |
| 2026-04-20 01:19 | -34.22981 | 151.19352 | 12151 ft | 305 kts | 227° |
| 2026-04-20 01:19 | -34.24370 | 151.17395 | 12864 ft | 309 kts | 227° |
| 2026-04-20 01:19 | -34.25778 | 151.15415 | 13598 ft | 312 kts | 227° |
| 2026-04-20 01:20 | -34.27205 | 151.13417 | 14296 ft | 316 kts | 226° |
| 2026-04-20 01:20 | -34.28627 | 151.11420 | 14930 ft | 319 kts | 227° |
| 2026-04-20 01:20 | -34.30077 | 151.09377 | 15562 ft | 322 kts | 227° |
| 2026-04-20 01:20 | -34.31543 | 151.07312 | 16189 ft | 325 kts | 227° |
| 2026-04-20 01:21 | -34.33020 | 151.05226 | 16823 ft | 328 kts | 227° |
| 2026-04-20 01:21 | -34.34504 | 151.03125 | 17426 ft | 330 kts | 227° |
| 2026-04-20 01:21 | -34.36006 | 151.01003 | 18006 ft | 334 kts | 227° |
| 2026-04-20 01:21 | -34.37570 | 150.98913 | 18584 ft | 337 kts | 221° |
| 2026-04-20 01:22 | -34.39346 | 150.96953 | 18732 ft | 353 kts | 220° |
| 2026-04-20 01:22 | -34.41183 | 150.94964 | 19021 ft | 363 kts | 220° |
| 2026-04-20 01:22 | -34.43083 | 150.92922 | 19508 ft | 367 kts | 219° |
| 2026-04-20 01:22 | -34.44996 | 150.90866 | 20055 ft | 369 kts | 219° |
| 2026-04-20 01:23 | -34.46921 | 150.88787 | 20603 ft | 371 kts | 219° |
| 2026-04-20 01:23 | -34.48850 | 150.86692 | 21138 ft | 374 kts | 219° |
| 2026-04-20 01:23 | -34.50789 | 150.84579 | 21679 ft | 376 kts | 219° |
| 2026-04-20 01:23 | -34.52735 | 150.82449 | 22198 ft | 378 kts | 219° |
| 2026-04-20 01:24 | -34.54692 | 150.80304 | 22702 ft | 380 kts | 220° |
| 2026-04-20 01:24 | -34.56501 | 150.77942 | 23186 ft | 386 kts | 229° |
| 2026-04-20 01:24 | -34.58077 | 150.75348 | 23656 ft | 389 kts | 230° |
| 2026-04-20 01:24 | -34.59680 | 150.72692 | 24086 ft | 391 kts | 230° |
| 2026-04-20 01:25 | -34.61291 | 150.70019 | 24483 ft | 393 kts | 230° |
| 2026-04-20 01:25 | -34.62909 | 150.67330 | 24876 ft | 395 kts | 230° |
| 2026-04-20 01:25 | -34.64536 | 150.64627 | 25285 ft | 397 kts | 230° |
| 2026-04-20 01:25 | -34.66170 | 150.61917 | 25688 ft | 399 kts | 230° |
| 2026-04-20 01:26 | -34.67812 | 150.59185 | 26079 ft | 401 kts | 230° |
| 2026-04-20 01:26 | -34.68901 | 150.57369 | 26343 ft | 402 kts | 230° |
| 2026-04-20 01:26 | -34.70550 | 150.54620 | 26720 ft | 404 kts | 229° |
| 2026-04-20 01:26 | -34.72750 | 150.50951 | 27244 ft | 407 kts | 229° |
| 2026-04-20 01:27 | -34.74418 | 150.48165 | 27643 ft | 408 kts | 229° |
| 2026-04-20 01:27 | -34.75549 | 150.46275 | 27884 ft | 410 kts | 229° |
| 2026-04-20 01:27 | -34.77776 | 150.42552 | 28369 ft | 413 kts | 229° |
| 2026-04-20 01:27 | -34.79471 | 150.39716 | 28781 ft | 415 kts | 229° |
| 2026-04-20 01:28 | -34.80595 | 150.37833 | 29039 ft | 416 kts | 229° |
| 2026-04-20 01:28 | -34.82300 | 150.34979 | 29398 ft | 418 kts | 229° |
| 2026-04-20 01:28 | -34.84014 | 150.32114 | 29788 ft | 420 kts | 229° |
| 2026-04-20 01:28 | -34.85734 | 150.29235 | 30157 ft | 422 kts | 229° |
| 2026-04-20 01:29 | -34.88017 | 150.25403 | 30680 ft | 421 kts | 229° |
| 2026-04-20 01:29 | -34.89177 | 150.23451 | 30970 ft | 420 kts | 229° |
| 2026-04-20 01:29 | -34.90884 | 150.20577 | 31448 ft | 418 kts | 229° |
| 2026-04-20 01:29 | -34.92564 | 150.17747 | 31904 ft | 417 kts | 229° |
| 2026-04-20 01:30 | -34.94831 | 150.13929 | 32477 ft | 416 kts | 229° |
| 2026-04-20 01:30 | -34.95953 | 150.12036 | 32774 ft | 415 kts | 229° |
| 2026-04-20 01:30 | -34.97637 | 150.09190 | 33231 ft | 414 kts | 229° |
| 2026-04-20 01:30 | -34.99317 | 150.06350 | 33728 ft | 412 kts | 228° |
| 2026-04-20 01:31 | -35.00988 | 150.03526 | 34209 ft | 410 kts | 228° |
| 2026-04-20 01:31 | -35.02654 | 150.00707 | 34623 ft | 409 kts | 228° |
| 2026-04-20 01:31 | -35.04848 | 149.96993 | 35123 ft | 407 kts | 228° |
| 2026-04-20 01:31 | -35.05967 | 149.95099 | 35365 ft | 406 kts | 228° |
| 2026-04-20 01:32 | -35.07595 | 149.92345 | 35697 ft | 406 kts | 228° |
| 2026-04-20 01:32 | -35.09245 | 149.89551 | 36039 ft | 405 kts | 228° |
| 2026-04-20 01:32 | -35.10890 | 149.86762 | 36274 ft | 406 kts | 228° |
| 2026-04-20 01:32 | -35.12544 | 149.83958 | 36336 ft | 409 kts | 228° |
| 2026-04-20 01:33 | -35.15884 | 149.78288 | 36333 ft | 412 kts | 228° |
| 2026-04-20 01:33 | -35.19224 | 149.72585 | 36329 ft | 412 kts | 229° |
| 2026-04-20 01:34 | -35.22535 | 149.66933 | 36329 ft | 412 kts | 229° |
| 2026-04-20 01:34 | -35.25874 | 149.61231 | 36326 ft | 412 kts | 229° |
| 2026-04-20 01:35 | -35.29211 | 149.55520 | 36321 ft | 413 kts | 229° |
| 2026-04-20 01:35 | -35.32547 | 149.49792 | 36328 ft | 413 kts | 229° |
| 2026-04-20 01:36 | -35.35861 | 149.44100 | 36348 ft | 414 kts | 229° |
| 2026-04-20 01:36 | -35.39203 | 149.38352 | 36356 ft | 414 kts | 229° |
| 2026-04-20 01:37 | -35.42546 | 149.32597 | 36362 ft | 414 kts | 229° |
| 2026-04-20 01:37 | -35.45884 | 149.26828 | 36363 ft | 414 kts | 229° |
| 2026-04-20 01:38 | -35.49213 | 149.21069 | 36357 ft | 414 kts | 229° |
| 2026-04-20 01:38 | -35.52517 | 149.15347 | 36348 ft | 414 kts | 229° |
| 2026-04-20 01:39 | -35.55840 | 149.09584 | 36341 ft | 414 kts | 229° |
| 2026-04-20 01:39 | -35.59160 | 149.03817 | 36318 ft | 414 kts | 229° |
| 2026-04-20 01:40 | -35.62484 | 148.98041 | 36310 ft | 414 kts | 229° |
| 2026-04-20 01:40 | -35.65786 | 148.92296 | 36313 ft | 414 kts | 229° |
| 2026-04-20 01:41 | -35.69095 | 148.86505 | 36314 ft | 414 kts | 229° |
| 2026-04-20 01:41 | -35.72403 | 148.80705 | 36314 ft | 414 kts | 229° |
| 2026-04-20 01:42 | -35.75719 | 148.74903 | 36299 ft | 414 kts | 229° |
| 2026-04-20 01:42 | -35.79013 | 148.69139 | 36304 ft | 414 kts | 230° |
| 2026-04-20 01:43 | -35.82315 | 148.63325 | 36312 ft | 414 kts | 230° |
| 2026-04-20 01:43 | -35.85613 | 148.57499 | 36308 ft | 414 kts | 230° |
| 2026-04-20 01:44 | -35.88912 | 148.51680 | 36314 ft | 414 kts | 230° |
| 2026-04-20 01:44 | -35.92204 | 148.45847 | 36292 ft | 414 kts | 230° |
| 2026-04-20 01:45 | -35.95469 | 148.40051 | 36297 ft | 415 kts | 230° |
| 2026-04-20 01:45 | -35.98759 | 148.34195 | 36301 ft | 415 kts | 230° |
| 2026-04-20 01:46 | -36.02042 | 148.28333 | 36311 ft | 415 kts | 230° |
| 2026-04-20 01:46 | -36.05323 | 148.22466 | 36312 ft | 415 kts | 230° |
| 2026-04-20 01:47 | -36.08583 | 148.16638 | 36297 ft | 415 kts | 230° |
| 2026-04-20 01:47 | -36.11862 | 148.10771 | 36313 ft | 415 kts | 230° |
| 2026-04-20 01:48 | -36.15145 | 148.04901 | 36312 ft | 415 kts | 230° |
| 2026-04-20 01:48 | -36.18430 | 147.99025 | 36313 ft | 415 kts | 230° |
| 2026-04-20 01:49 | -36.21689 | 147.93177 | 36318 ft | 415 kts | 230° |
| 2026-04-20 01:49 | -36.24968 | 147.87286 | 36305 ft | 415 kts | 230° |
| 2026-04-20 01:50 | -36.28245 | 147.81393 | 36314 ft | 415 kts | 230° |
| 2026-04-20 01:50 | -36.31522 | 147.75488 | 36317 ft | 415 kts | 230° |
| 2026-04-20 01:51 | -36.34767 | 147.69620 | 36316 ft | 415 kts | 230° |
| 2026-04-20 01:51 | -36.38025 | 147.63709 | 36302 ft | 415 kts | 230° |
| 2026-04-20 01:52 | -36.41278 | 147.57786 | 36314 ft | 415 kts | 230° |
| 2026-04-20 01:52 | -36.44540 | 147.51865 | 36319 ft | 415 kts | 230° |
| 2026-04-20 01:53 | -36.47781 | 147.45986 | 36320 ft | 415 kts | 230° |
| 2026-04-20 01:53 | -36.51037 | 147.40061 | 36322 ft | 415 kts | 230° |
| 2026-04-20 01:54 | -36.54283 | 147.34123 | 36314 ft | 415 kts | 230° |
| 2026-04-20 01:54 | -36.57528 | 147.28166 | 36321 ft | 416 kts | 230° |
| 2026-04-20 01:55 | -36.60762 | 147.22214 | 36321 ft | 414 kts | 230° |
| 2026-04-20 01:55 | -36.63970 | 147.16323 | 36323 ft | 414 kts | 230° |
| 2026-04-20 01:56 | -36.67194 | 147.10377 | 36309 ft | 414 kts | 230° |
| 2026-04-20 01:56 | -36.70418 | 147.04425 | 36319 ft | 414 kts | 230° |
| 2026-04-20 01:57 | -36.73637 | 146.98480 | 36318 ft | 414 kts | 230° |
| 2026-04-20 01:57 | -36.76826 | 146.92571 | 36323 ft | 413 kts | 230° |
| 2026-04-20 01:58 | -36.80030 | 146.86620 | 36323 ft | 413 kts | 231° |
| 2026-04-20 01:58 | -36.83234 | 146.80674 | 36305 ft | 413 kts | 231° |
| 2026-04-20 01:59 | -36.86430 | 146.74723 | 36307 ft | 413 kts | 231° |
| 2026-04-20 01:59 | -36.89625 | 146.68770 | 36308 ft | 413 kts | 231° |
| 2026-04-20 02:00 | -36.92797 | 146.62850 | 36311 ft | 412 kts | 231° |
| 2026-04-20 02:00 | -36.95981 | 146.56884 | 36320 ft | 412 kts | 231° |
| 2026-04-20 02:01 | -36.99159 | 146.50923 | 36317 ft | 412 kts | 231° |
| 2026-04-20 02:01 | -37.02333 | 146.44965 | 36311 ft | 412 kts | 231° |
| 2026-04-20 02:02 | -37.05488 | 146.39035 | 36311 ft | 412 kts | 231° |
| 2026-04-20 02:02 | -37.08660 | 146.33057 | 36332 ft | 412 kts | 231° |
| 2026-04-20 02:03 | -37.11825 | 146.27084 | 36311 ft | 411 kts | 231° |
| 2026-04-20 02:03 | -37.14985 | 146.21108 | 36303 ft | 412 kts | 231° |
| 2026-04-20 02:04 | -37.18123 | 146.15166 | 36330 ft | 411 kts | 231° |
| 2026-04-20 02:04 | -37.21269 | 146.09198 | 36339 ft | 409 kts | 232° |
| 2026-04-20 02:05 | -37.24399 | 146.03242 | 36320 ft | 408 kts | 232° |
| 2026-04-20 02:05 | -37.27516 | 145.97308 | 36326 ft | 407 kts | 232° |
| 2026-04-20 02:06 | -37.30641 | 145.91348 | 35784 ft | 414 kts | 232° |
| 2026-04-20 02:06 | -37.32207 | 145.88362 | 35054 ft | 416 kts | 232° |
| 2026-04-20 02:06 | -37.33811 | 145.85309 | 34334 ft | 419 kts | 232° |
| 2026-04-20 02:07 | -37.35416 | 145.82254 | 33534 ft | 420 kts | 232° |
| 2026-04-20 02:07 | -37.37030 | 145.79175 | 32739 ft | 422 kts | 232° |
| 2026-04-20 02:07 | -37.38644 | 145.76091 | 31958 ft | 424 kts | 232° |
| 2026-04-20 02:07 | -37.40267 | 145.72990 | 31216 ft | 425 kts | 232° |
| 2026-04-20 02:08 | -37.41892 | 145.69880 | 30491 ft | 425 kts | 232° |
| 2026-04-20 02:08 | -37.43514 | 145.66774 | 29679 ft | 426 kts | 232° |
| 2026-04-20 02:08 | -37.45006 | 145.63609 | 28870 ft | 429 kts | 240° |
| 2026-04-20 02:08 | -37.46071 | 145.60076 | 28078 ft | 433 kts | 247° |
| 2026-04-20 02:09 | -37.47027 | 145.56488 | 27308 ft | 432 kts | 247° |
| 2026-04-20 02:09 | -37.47977 | 145.52905 | 26554 ft | 430 kts | 247° |
| 2026-04-20 02:09 | -37.48920 | 145.49341 | 25812 ft | 429 kts | 248° |
| 2026-04-20 02:09 | -37.49861 | 145.45784 | 25098 ft | 427 kts | 248° |
| 2026-04-20 02:10 | -37.50798 | 145.42250 | 24410 ft | 425 kts | 248° |
| 2026-04-20 02:10 | -37.51732 | 145.38725 | 23695 ft | 423 kts | 248° |
| 2026-04-20 02:10 | -37.52650 | 145.35264 | 22909 ft | 421 kts | 248° |
| 2026-04-20 02:10 | -37.53573 | 145.31779 | 22121 ft | 418 kts | 248° |
| 2026-04-20 02:11 | -37.54485 | 145.28321 | 21354 ft | 414 kts | 249° |
| 2026-04-20 02:11 | -37.55388 | 145.24889 | 20596 ft | 411 kts | 249° |
| 2026-04-20 02:11 | -37.56281 | 145.21481 | 19867 ft | 406 kts | 249° |
| 2026-04-20 02:11 | -37.57145 | 145.18167 | 19120 ft | 391 kts | 250° |
| 2026-04-20 02:12 | -37.57984 | 145.14952 | 18200 ft | 381 kts | 250° |
| 2026-04-20 02:12 | -37.58805 | 145.11819 | 17245 ft | 372 kts | 250° |
| 2026-04-20 02:12 | -37.59611 | 145.08752 | 16307 ft | 364 kts | 250° |
| 2026-04-20 02:12 | -37.60400 | 145.05752 | 15445 ft | 356 kts | 250° |
| 2026-04-20 02:13 | -37.61158 | 145.02863 | 14683 ft | 348 kts | 250° |
| 2026-04-20 02:13 | -37.61907 | 144.99996 | 13871 ft | 340 kts | 251° |
| 2026-04-20 02:13 | -37.62637 | 144.97190 | 13074 ft | 333 kts | 251° |
| 2026-04-20 02:13 | -37.63352 | 144.94445 | 12313 ft | 327 kts | 251° |
| 2026-04-20 02:14 | -37.64055 | 144.91735 | 11571 ft | 322 kts | 251° |
| 2026-04-20 02:14 | -37.64747 | 144.89066 | 10863 ft | 320 kts | 251° |
| 2026-04-20 02:14 | -37.65441 | 144.86389 | 10510 ft | 318 kts | 252° |
| 2026-04-20 02:14 | -37.65862 | 144.83655 | 10274 ft | 318 kts | 264° |
| 2026-04-20 02:15 | -37.65832 | 144.80876 | 9605 ft | 325 kts | 274° |
| 2026-04-20 02:15 | -37.65649 | 144.78007 | 8894 ft | 330 kts | 274° |
| 2026-04-20 02:15 | -37.65462 | 144.75110 | 8201 ft | 333 kts | 274° |
| 2026-04-20 02:15 | -37.65276 | 144.72194 | 7495 ft | 330 kts | 274° |
| 2026-04-20 02:16 | -37.65101 | 144.69382 | 6964 ft | 314 kts | 274° |
| 2026-04-20 02:16 | -37.64935 | 144.66699 | 6429 ft | 301 kts | 274° |
| 2026-04-20 02:16 | -37.64774 | 144.64127 | 5940 ft | 287 kts | 274° |
| 2026-04-20 02:16 | -37.64619 | 144.61668 | 5524 ft | 275 kts | 275° |
| 2026-04-20 02:17 | -37.64472 | 144.59342 | 5111 ft | 265 kts | 275° |
| 2026-04-20 02:17 | -37.64441 | 144.57063 | 4688 ft | 256 kts | 261° |
| 2026-04-20 02:17 | -37.65061 | 144.55010 | 4273 ft | 249 kts | 236° |
| 2026-04-20 02:17 | -37.66276 | 144.53528 | 4008 ft | 237 kts | 212° |
| 2026-04-20 02:18 | -37.67753 | 144.52827 | 3996 ft | 223 kts | 190° |
| 2026-04-20 02:18 | -37.69300 | 144.52561 | 3972 ft | 225 kts | 188° |
| 2026-04-20 02:18 | -37.70838 | 144.52304 | 3848 ft | 222 kts | 189° |
| 2026-04-20 02:18 | -37.72365 | 144.52046 | 3732 ft | 221 kts | 189° |
| 2026-04-20 02:19 | -37.73866 | 144.51794 | 3600 ft | 220 kts | 189° |
| 2026-04-20 02:19 | -37.75384 | 144.51538 | 3487 ft | 220 kts | 189° |
| 2026-04-20 02:19 | -37.76901 | 144.51283 | 3371 ft | 216 kts | 188° |
| 2026-04-20 02:19 | -37.78360 | 144.51040 | 3255 ft | 207 kts | 189° |
| 2026-04-20 02:20 | -37.79763 | 144.50800 | 3135 ft | 200 kts | 189° |
| 2026-04-20 02:20 | -37.81122 | 144.50571 | 3057 ft | 196 kts | 188° |
| 2026-04-20 02:20 | -37.82466 | 144.50344 | 3007 ft | 195 kts | 188° |
| 2026-04-20 02:20 | -37.83816 | 144.50118 | 3018 ft | 196 kts | 188° |
| 2026-04-20 02:21 | -37.86492 | 144.49670 | 3019 ft | 195 kts | 189° |
| 2026-04-20 02:21 | -37.87834 | 144.49444 | 2930 ft | 194 kts | 188° |
| 2026-04-20 02:21 | -37.89151 | 144.49224 | 2740 ft | 185 kts | 188° |
| 2026-04-20 02:22 | -37.90379 | 144.49018 | 2480 ft | 172 kts | 188° |
| 2026-04-20 02:22 | -37.91511 | 144.48828 | 2297 ft | 153 kts | 188° |
| 2026-04-20 02:22 | -37.92518 | 144.48659 | 2080 ft | 142 kts | 187° |
| 2026-04-20 02:22 | -37.93481 | 144.48499 | 1883 ft | 137 kts | 187° |
| 2026-04-20 02:23 | -37.94428 | 144.48339 | 1700 ft | 137 kts | 188° |
| 2026-04-20 02:23 | -37.95353 | 144.48183 | 1519 ft | 135 kts | 188° |
| 2026-04-20 02:23 | -37.96277 | 144.48027 | 1331 ft | 134 kts | 188° |
| 2026-04-20 02:23 | -37.97210 | 144.47871 | 1169 ft | 134 kts | 190° |
| 2026-04-20 02:24 | -37.98149 | 144.47718 | 988 ft | 136 kts | 188° |
| 2026-04-20 02:24 | -37.99090 | 144.47559 | 844 ft | 136 kts | 187° |
| 2026-04-20 02:24 | -38.00027 | 144.47411 | 626 ft | 134 kts | 187° |
| 2026-04-20 02:24 | -38.00943 | 144.47246 | 402 ft | 131 kts | 188° |
| 2026-04-20 02:25 | -38.01853 | 144.47098 | 232 ft | 133 kts | 188° |
| 2026-04-20 02:25 | -38.02755 | 144.46943 | 89 ft | 132 kts | 189° |
| 2026-04-20 02:25 | -38.03605 | 144.46793 | 37 ft | 105 kts | 188° |
| 2026-04-20 02:25 | -38.04162 | 144.46695 | 35 ft | 61 kts | 187° |
| 2026-04-20 02:26 | -38.04526 | 144.46637 | 36 ft | 46 kts | 187° |
| 2026-04-20 02:26 | -38.04637 | 144.46710 | 37 ft | 13 kts | 99° |
| 2026-04-20 02:26 | -38.04627 | 144.46827 | 34 ft | 14 kts | 38° |
| 2026-04-20 02:26 | -38.04502 | 144.46856 | 36 ft | 24 kts | 7° |
| 2026-04-20 02:27 | -38.04322 | 144.46886 | 36 ft | 28 kts | 8° |
| 2026-04-20 02:27 | -38.04119 | 144.46919 | 34 ft | 31 kts | 7° |
| 2026-04-20 02:27 | -38.03897 | 144.46956 | 36 ft | 33 kts | 7° |
| 2026-04-20 02:27 | -38.03663 | 144.46998 | 36 ft | 35 kts | 8° |
| 2026-04-20 02:28 | -38.03412 | 144.47041 | 34 ft | 36 kts | 7° |
| 2026-04-20 02:28 | -38.03212 | 144.47202 | 35 ft | 34 kts | 62° |
| 2026-04-20 02:28 | -38.03012 | 144.47339 | 36 ft | 35 kts | 10° |
| 2026-04-20 02:28 | -38.02821 | 144.47356 | 36 ft | 18 kts | 346° |
| 2026-04-20 02:29 | -38.02742 | 144.47313 | 36 ft | 6 kts | 4° |
| 2026-04-20 02:29 | -38.02729 | 144.47316 | 36 ft | 0 kts | 9° |